Time,TemperatureF,DewpointF,PressureIn,WindDirection,WindDirectionDegrees,WindSpeedMPH,WindSpeedGustMPH,Humidity,HourlyPrecipIn,Conditions,Clouds,dailyrainin,SoftwareType,DateUTC
2013-02-10 00:00:00,38.3,32.7,30.08,SSW,205,1.0,1.0,80,0.00,,,0.00,VWS V14.01,2013-02-10 06:00:00,
2013-02-10 00:05:00,38.4,32.8,30.08,SSW,192,0.0,1.0,80,0.00,,,0.00,VWS V14.01,2013-02-10 06:05:00,
2013-02-10 00:10:00,38.5,32.9,30.08,SSW,206,1.0,1.0,80,0.00,,,0.00,VWS V14.01,2013-02-10 06:10:00,
2013-02-10 00:15:00,38.6,32.7,30.08,South,182,1.0,2.0,79,0.00,,,0.00,VWS V14.01,2013-02-10 06:15:00,
2013-02-10 00:20:00,38.6,33.0,30.09,SSW,209,0.0,0.0,80,0.00,,,0.00,VWS V14.01,2013-02-10 06:20:00,
2013-02-10 00:25:00,38.6,33.0,30.09,South,180,3.0,3.0,80,0.00,,,0.00,VWS V14.01,2013-02-10 06:25:00,
2013-02-10 00:30:00,38.5,33.5,30.09,SW,234,2.0,2.0,82,0.00,,,0.00,VWS V14.01,2013-02-10 06:30:00,
2013-02-10 00:35:00,38.3,33.6,30.09,SW,222,0.0,1.0,83,0.01,,,0.01,VWS V14.01,2013-02-10 06:35:00,
2013-02-10 00:40:00,38.0,33.6,30.08,SW,223,0.0,2.0,84,0.01,,,0.01,VWS V14.01,2013-02-10 06:40:00,
2013-02-10 00:45:00,37.8,33.7,30.08,SW,214,1.0,2.0,85,0.01,,,0.01,VWS V14.01,2013-02-10 06:45:00,
2013-02-10 00:50:00,37.5,33.7,30.08,SW,219,0.0,1.0,86,0.01,,,0.01,VWS V14.01,2013-02-10 06:50:00,
2013-02-10 00:55:00,37.3,33.8,30.08,South,187,0.0,0.0,87,0.01,,,0.01,VWS V14.01,2013-02-10 06:55:00,
2013-02-10 01:00:00,37.1,33.6,30.08,SSE,158,0.0,0.0,87,0.01,,,0.01,VWS V14.01,2013-02-10 07:00:00,
2013-02-10 01:05:00,37.0,33.8,30.07,SW,229,0.0,1.0,88,0.01,,,0.01,VWS V14.01,2013-02-10 07:05:00,
2013-02-10 01:09:00,37.0,33.8,30.07,SW,225,2.0,2.0,88,0.01,,,0.01,VWS V14.01,2013-02-10 07:09:00,
2013-02-10 01:14:00,36.9,33.7,30.07,South,180,0.0,2.0,88,0.01,,,0.01,VWS V14.01,2013-02-10 07:14:00,
2013-02-10 01:19:00,36.9,34.0,30.07,SW,231,0.0,0.0,89,0.01,,,0.01,VWS V14.01,2013-02-10 07:19:00,
2013-02-10 01:24:00,36.9,34.0,30.07,SSW,192,0.0,0.0,89,0.02,,,0.02,VWS V14.01,2013-02-10 07:24:00,
2013-02-10 01:29:00,36.8,33.9,30.06,SSW,203,1.0,1.0,89,0.02,,,0.02,VWS V14.01,2013-02-10 07:29:00,
2013-02-10 01:34:00,36.8,34.2,30.06,SW,225,0.0,0.0,90,0.01,,,0.02,VWS V14.01,2013-02-10 07:34:00,
2013-02-10 01:39:00,36.8,34.2,30.06,SSW,206,0.0,0.0,90,0.01,,,0.02,VWS V14.01,2013-02-10 07:39:00,
2013-02-10 01:44:00,36.8,34.2,30.05,SW,225,2.0,2.0,90,0.01,,,0.02,VWS V14.01,2013-02-10 07:44:00,
2013-02-10 01:49:00,36.8,34.4,30.05,SSE,167,0.0,1.0,91,0.01,,,0.02,VWS V14.01,2013-02-10 07:49:00,
2013-02-10 01:54:00,36.8,34.4,30.05,SSE,167,0.0,0.0,91,0.01,,,0.02,VWS V14.01,2013-02-10 07:54:00,
2013-02-10 01:59:00,36.8,34.4,30.05,NNE,21,0.0,0.0,91,0.01,,,0.02,VWS V14.01,2013-02-10 07:59:00,
2013-02-10 02:04:00,36.9,34.5,30.04,WSW,242,0.0,0.0,91,0.02,,,0.03,VWS V14.01,2013-02-10 08:04:00,
2013-02-10 02:09:00,36.9,34.5,30.04,WSW,244,0.0,0.0,91,0.02,,,0.03,VWS V14.01,2013-02-10 08:09:00,
2013-02-10 02:14:00,36.9,34.5,30.04,WSW,244,0.0,0.0,91,0.03,,,0.04,VWS V14.01,2013-02-10 08:14:00,
2013-02-10 02:19:00,36.9,34.5,30.04,WSW,244,0.0,0.0,91,0.03,,,0.04,VWS V14.01,2013-02-10 08:19:00,
2013-02-10 02:24:00,36.8,34.7,30.04,South,173,0.0,0.0,92,0.02,,,0.04,VWS V14.01,2013-02-10 08:24:00,
2013-02-10 02:29:00,36.8,34.7,30.04,South,180,0.0,0.0,92,0.02,,,0.04,VWS V14.01,2013-02-10 08:29:00,
2013-02-10 02:34:00,36.8,34.7,30.03,West,279,0.0,0.0,92,0.02,,,0.04,VWS V14.01,2013-02-10 08:34:00,
2013-02-10 02:39:00,36.8,34.7,30.03,SSW,195,0.0,0.0,92,0.02,,,0.04,VWS V14.01,2013-02-10 08:39:00,
2013-02-10 02:44:00,36.9,34.8,30.05,SW,226,0.0,0.0,92,0.02,,,0.04,VWS V14.01,2013-02-10 08:44:00,
2013-02-10 02:49:00,36.9,34.8,30.04,SW,217,0.0,0.0,92,0.03,,,0.05,VWS V14.01,2013-02-10 08:49:00,
2013-02-10 02:54:00,37.0,34.9,30.03,WNW,292,2.0,2.0,92,0.03,,,0.05,VWS V14.01,2013-02-10 08:54:00,
2013-02-10 02:59:00,37.0,34.9,30.03,NNW,334,2.0,3.0,92,0.03,,,0.05,VWS V14.01,2013-02-10 08:59:00,
2013-02-10 03:04:00,37.1,35.3,30.02,NE,55,0.0,2.0,93,0.02,,,0.05,VWS V14.01,2013-02-10 09:04:00,
2013-02-10 03:09:00,37.0,35.2,30.01,NE,55,0.0,1.0,93,0.02,,,0.05,VWS V14.01,2013-02-10 09:09:00,
2013-02-10 03:14:00,37.0,35.2,30.00,NE,55,2.0,2.0,93,0.01,,,0.05,VWS V14.01,2013-02-10 09:14:00,
2013-02-10 03:19:00,36.9,35.1,29.99,NE,55,0.0,2.0,93,0.02,,,0.06,VWS V14.01,2013-02-10 09:19:00,
2013-02-10 03:24:00,36.9,35.1,30.01,South,177,0.0,1.0,93,0.03,,,0.07,VWS V14.01,2013-02-10 09:24:00,
2013-02-10 03:29:00,36.8,35.0,30.01,South,177,1.0,1.0,93,0.03,,,0.07,VWS V14.01,2013-02-10 09:29:00,
2013-02-10 03:34:00,36.8,35.0,30.00,South,177,1.0,1.0,93,0.04,,,0.08,VWS V14.01,2013-02-10 09:34:00,
2013-02-10 03:39:00,36.8,35.0,30.00,NNW,345,0.0,2.0,93,0.04,,,0.08,VWS V14.01,2013-02-10 09:39:00,
2013-02-10 03:44:00,36.7,35.1,30.00,North,360,0.0,1.0,94,0.05,,,0.09,VWS V14.01,2013-02-10 09:44:00,
2013-02-10 03:49:00,36.7,35.1,29.99,North,5,0.0,1.0,94,0.04,,,0.09,VWS V14.01,2013-02-10 09:49:00,
2013-02-10 03:54:00,36.6,35.0,29.99,NW,311,0.0,1.0,94,0.04,,,0.09,VWS V14.01,2013-02-10 09:54:00,
2013-02-10 03:59:00,36.6,35.0,29.99,NE,42,0.0,2.0,94,0.04,,,0.09,VWS V14.01,2013-02-10 09:59:00,
2013-02-10 04:04:00,36.6,35.0,29.98,NE,42,1.0,2.0,94,0.04,,,0.09,VWS V14.01,2013-02-10 10:04:00,
2013-02-10 04:09:00,36.6,35.0,29.98,NE,42,0.0,2.0,94,0.04,,,0.09,VWS V14.01,2013-02-10 10:09:00,
2013-02-10 04:14:00,36.6,35.0,29.98,NE,42,0.0,2.0,94,0.04,,,0.09,VWS V14.01,2013-02-10 10:14:00,
2013-02-10 04:19:00,36.6,35.0,29.97,NNE,20,2.0,2.0,94,0.03,,,0.09,VWS V14.01,2013-02-10 10:19:00,
2013-02-10 04:24:00,36.7,35.1,29.97,North,5,0.0,2.0,94,0.03,,,0.10,VWS V14.01,2013-02-10 10:24:00,
2013-02-10 04:29:00,36.7,35.1,29.97,North,9,1.0,2.0,94,0.03,,,0.10,VWS V14.01,2013-02-10 10:29:00,
2013-02-10 04:34:00,36.7,35.4,29.97,South,169,0.0,4.0,95,0.02,,,0.10,VWS V14.01,2013-02-10 10:34:00,
2013-02-10 04:39:00,36.8,35.5,29.96,North,9,1.0,2.0,95,0.02,,,0.10,VWS V14.01,2013-02-10 10:39:00,
2013-02-10 04:44:00,36.8,35.5,29.95,North,9,2.0,2.0,95,0.01,,,0.10,VWS V14.01,2013-02-10 10:44:00,
2013-02-10 04:49:00,36.9,35.6,29.95,NNW,333,0.0,2.0,95,0.01,,,0.10,VWS V14.01,2013-02-10 10:49:00,
2013-02-10 04:54:00,36.9,35.6,29.95,NW,323,0.0,2.0,95,0.01,,,0.10,VWS V14.01,2013-02-10 10:54:00,
2013-02-10 04:59:00,36.9,35.6,29.95,NW,323,0.0,1.0,95,0.01,,,0.10,VWS V14.01,2013-02-10 10:59:00,
2013-02-10 05:04:00,36.9,35.6,29.95,ENE,65,1.0,2.0,95,0.01,,,0.10,VWS V14.01,2013-02-10 11:04:00,
2013-02-10 05:09:00,36.9,35.6,29.95,NW,322,0.0,1.0,95,0.01,,,0.10,VWS V14.01,2013-02-10 11:09:00,
2013-02-10 05:14:00,36.9,35.6,29.94,North,355,0.0,1.0,95,0.01,,,0.10,VWS V14.01,2013-02-10 11:14:00,
2013-02-10 05:19:00,36.9,35.6,29.93,North,5,2.0,3.0,95,0.01,,,0.10,VWS V14.01,2013-02-10 11:19:00,
2013-02-10 05:24:00,36.8,35.5,29.92,NE,55,2.0,2.0,95,0.00,,,0.10,VWS V14.01,2013-02-10 11:24:00,
2013-02-10 05:29:00,36.8,35.5,29.92,East,100,0.0,1.0,95,0.00,,,0.10,VWS V14.01,2013-02-10 11:29:00,
2013-02-10 05:34:00,36.8,35.5,29.92,NNW,346,1.0,3.0,95,0.00,,,0.10,VWS V14.01,2013-02-10 11:34:00,
2013-02-10 05:39:00,36.9,35.6,29.91,NE,34,1.0,3.0,95,0.00,,,0.10,VWS V14.01,2013-02-10 11:39:00,
2013-02-10 05:44:00,36.9,35.6,29.90,NE,55,1.0,3.0,95,0.00,,,0.10,VWS V14.01,2013-02-10 11:44:00,
2013-02-10 05:49:00,37.0,35.7,29.90,North,5,2.0,2.0,95,0.00,,,0.10,VWS V14.01,2013-02-10 11:49:00,
2013-02-10 05:54:00,37.1,35.8,29.90,North,5,1.0,2.0,95,0.00,,,0.10,VWS V14.01,2013-02-10 11:54:00,
2013-02-10 05:59:00,37.2,35.9,29.90,NE,50,1.0,1.0,95,0.00,,,0.10,VWS V14.01,2013-02-10 11:59:00,
2013-02-10 06:04:00,37.3,36.0,29.89,NNE,28,3.0,5.0,95,0.00,,,0.10,VWS V14.01,2013-02-10 12:04:00,
2013-02-10 06:09:00,37.4,36.1,29.89,North,5,0.0,2.0,95,0.00,,,0.10,VWS V14.01,2013-02-10 12:09:00,
2013-02-10 06:14:00,37.4,36.1,29.88,North,355,2.0,3.0,95,0.01,,,0.11,VWS V14.01,2013-02-10 12:14:00,
2013-02-10 06:19:00,37.5,36.2,29.88,NNE,22,0.0,4.0,95,0.01,,,0.11,VWS V14.01,2013-02-10 12:19:00,
2013-02-10 06:24:00,37.6,36.3,29.88,WNW,301,1.0,2.0,95,0.01,,,0.11,VWS V14.01,2013-02-10 12:24:00,
2013-02-10 06:29:00,37.6,36.3,29.88,NNE,31,1.0,3.0,95,0.01,,,0.11,VWS V14.01,2013-02-10 12:29:00,
2013-02-10 06:34:00,37.7,36.4,29.87,NNE,31,1.0,2.0,95,0.01,,,0.11,VWS V14.01,2013-02-10 12:34:00,
2013-02-10 06:39:00,37.8,36.8,29.87,NNE,31,1.0,1.0,96,0.01,,,0.11,VWS V14.01,2013-02-10 12:39:00,
2013-02-10 06:44:00,37.9,36.9,29.88,NNE,24,0.0,1.0,96,0.01,,,0.11,VWS V14.01,2013-02-10 12:44:00,
2013-02-10 06:49:00,38.2,37.2,29.88,NW,309,3.0,3.0,96,0.01,,,0.11,VWS V14.01,2013-02-10 12:49:00,
2013-02-10 06:54:00,38.4,37.4,29.87,North,9,2.0,3.0,96,0.02,,,0.12,VWS V14.01,2013-02-10 12:54:00,
2013-02-10 06:59:00,38.5,37.2,29.86,NNW,329,1.0,1.0,95,0.02,,,0.12,VWS V14.01,2013-02-10 12:59:00,
2013-02-10 07:04:00,38.7,37.4,29.87,NW,326,0.0,2.0,95,0.03,,,0.13,VWS V14.01,2013-02-10 13:04:00,
2013-02-10 07:09:00,38.8,37.5,29.87,NNE,12,3.0,4.0,95,0.03,,,0.13,VWS V14.01,2013-02-10 13:09:00,
2013-02-10 07:14:00,38.8,37.2,29.87,NNE,21,2.0,3.0,94,0.02,,,0.13,VWS V14.01,2013-02-10 13:14:00,
2013-02-10 07:19:00,38.9,37.3,29.87,South,184,1.0,2.0,94,0.02,,,0.13,VWS V14.01,2013-02-10 13:19:00,
2013-02-10 07:24:00,38.9,37.3,29.86,WSW,255,1.0,2.0,94,0.02,,,0.13,VWS V14.01,2013-02-10 13:24:00,
2013-02-10 07:29:00,39.0,37.4,29.85,NNW,332,2.0,4.0,94,0.02,,,0.13,VWS V14.01,2013-02-10 13:29:00,
2013-02-10 07:34:00,39.0,37.4,29.85,SW,234,1.0,2.0,94,0.02,,,0.13,VWS V14.01,2013-02-10 13:34:00,
2013-02-10 07:39:00,39.1,37.5,29.85,NNW,340,1.0,3.0,94,0.02,,,0.13,VWS V14.01,2013-02-10 13:39:00,
2013-02-10 07:44:00,39.1,37.2,29.84,NW,317,3.0,3.0,93,0.03,,,0.14,VWS V14.01,2013-02-10 13:44:00,
2013-02-10 07:49:00,39.1,37.2,29.84,NW,324,1.0,3.0,93,0.03,,,0.14,VWS V14.01,2013-02-10 13:49:00,
2013-02-10 07:54:00,39.0,37.2,29.83,NNE,12,0.0,1.0,93,0.03,,,0.15,VWS V14.01,2013-02-10 13:54:00,
2013-02-10 07:59:00,39.0,37.4,29.84,NW,314,2.0,3.0,94,0.03,,,0.15,VWS V14.01,2013-02-10 13:59:00,
2013-02-10 08:04:00,39.0,37.4,29.83,NW,305,2.0,3.0,94,0.02,,,0.15,VWS V14.01,2013-02-10 14:04:00,
2013-02-10 08:09:00,39.0,37.4,29.83,North,360,3.0,3.0,94,0.03,,,0.16,VWS V14.01,2013-02-10 14:09:00,
2013-02-10 08:14:00,39.0,37.4,29.83,SW,224,1.0,1.0,94,0.03,,,0.16,VWS V14.01,2013-02-10 14:14:00,
2013-02-10 08:19:00,39.0,37.4,29.82,North,355,1.0,2.0,94,0.04,,,0.17,VWS V14.01,2013-02-10 14:19:00,
2013-02-10 08:24:00,39.0,37.4,29.81,NNW,329,0.0,2.0,94,0.05,,,0.18,VWS V14.01,2013-02-10 14:24:00,
2013-02-10 08:29:00,39.0,37.4,29.81,NNE,22,1.0,2.0,94,0.05,,,0.18,VWS V14.01,2013-02-10 14:29:00,
2013-02-10 08:34:00,39.0,37.4,29.81,SW,219,1.0,3.0,94,0.05,,,0.18,VWS V14.01,2013-02-10 14:34:00,
2013-02-10 08:39:00,39.1,37.5,29.82,North,10,0.0,0.0,94,0.05,,,0.18,VWS V14.01,2013-02-10 14:39:00,
2013-02-10 08:44:00,39.1,37.5,29.82,South,180,0.0,1.0,94,0.06,,,0.20,VWS V14.01,2013-02-10 14:44:00,
2013-02-10 08:49:00,39.1,37.8,29.81,SSW,199,1.0,1.0,95,0.07,,,0.21,VWS V14.01,2013-02-10 14:49:00,
2013-02-10 08:54:00,39.2,37.9,29.80,SW,229,1.0,2.0,95,0.07,,,0.22,VWS V14.01,2013-02-10 14:54:00,
2013-02-10 08:59:00,39.4,38.1,29.80,NNE,17,0.0,1.0,95,0.07,,,0.22,VWS V14.01,2013-02-10 14:59:00,
2013-02-10 09:04:00,39.6,38.3,29.81,WSW,252,0.0,2.0,95,0.08,,,0.23,VWS V14.01,2013-02-10 15:04:00,
2013-02-10 09:09:00,39.9,38.6,29.80,South,182,1.0,3.0,95,0.10,,,0.26,VWS V14.01,2013-02-10 15:09:00,
2013-02-10 09:14:00,40.2,39.2,29.79,East,101,2.0,4.0,96,0.13,,,0.29,VWS V14.01,2013-02-10 15:14:00,
2013-02-10 09:19:00,40.4,39.1,29.78,NNW,347,1.0,2.0,95,0.14,,,0.31,VWS V14.01,2013-02-10 15:19:00,
2013-02-10 09:24:00,40.5,39.2,29.77,NNW,336,1.0,3.0,95,0.14,,,0.32,VWS V14.01,2013-02-10 15:24:00,
2013-02-10 09:29:00,40.5,39.2,29.78,West,277,3.0,3.0,95,0.16,,,0.34,VWS V14.01,2013-02-10 15:29:00,
2013-02-10 09:34:00,40.5,39.2,29.77,WNW,300,0.0,2.0,95,0.17,,,0.35,VWS V14.01,2013-02-10 15:34:00,
2013-02-10 09:39:00,40.5,39.2,29.76,NNE,26,1.0,2.0,95,0.19,,,0.37,VWS V14.01,2013-02-10 15:39:00,
2013-02-10 09:44:00,40.7,39.7,29.76,NW,310,4.0,4.0,96,0.18,,,0.38,VWS V14.01,2013-02-10 15:44:00,
2013-02-10 09:49:00,41.0,40.0,29.76,WNW,291,1.0,3.0,96,0.18,,,0.39,VWS V14.01,2013-02-10 15:49:00,
2013-02-10 09:54:00,41.3,40.2,29.77,SSW,204,4.0,6.0,96,0.17,,,0.39,VWS V14.01,2013-02-10 15:54:00,
2013-02-10 09:59:00,41.5,40.5,29.76,WNW,292,2.0,2.0,96,0.17,,,0.39,VWS V14.01,2013-02-10 15:59:00,
2013-02-10 10:04:00,41.7,40.7,29.76,SSW,204,2.0,3.0,96,0.16,,,0.39,VWS V14.01,2013-02-10 16:04:00,
2013-02-10 10:09:00,42.0,40.9,29.76,South,190,1.0,3.0,96,0.14,,,0.39,VWS V14.01,2013-02-10 16:09:00,
2013-02-10 10:14:00,42.2,41.1,29.75,South,185,2.0,3.0,96,0.10,,,0.39,VWS V14.01,2013-02-10 16:14:00,
2013-02-10 10:19:00,42.4,41.3,29.75,SW,227,2.0,3.0,96,0.09,,,0.40,VWS V14.01,2013-02-10 16:19:00,
2013-02-10 10:24:00,42.8,41.7,29.74,WSW,237,3.0,7.0,96,0.08,,,0.40,VWS V14.01,2013-02-10 16:24:00,
2013-02-10 10:29:00,43.0,41.9,29.74,SSW,206,4.0,5.0,96,0.07,,,0.40,VWS V14.01,2013-02-10 16:29:00,
2013-02-10 10:34:00,43.2,41.9,29.73,SSW,210,0.0,1.0,95,0.05,,,0.40,VWS V14.01,2013-02-10 16:34:00,
2013-02-10 10:39:00,43.3,42.0,29.73,SW,215,2.0,5.0,95,0.03,,,0.40,VWS V14.01,2013-02-10 16:39:00,
2013-02-10 10:44:00,43.5,41.9,29.72,South,185,1.0,3.0,94,0.02,,,0.40,VWS V14.01,2013-02-10 16:44:00,
2013-02-10 10:49:00,43.5,41.9,29.72,SW,217,3.0,7.0,94,0.01,,,0.40,VWS V14.01,2013-02-10 16:49:00,
2013-02-10 10:54:00,43.6,42.0,29.72,WSW,244,2.0,3.0,94,0.01,,,0.40,VWS V14.01,2013-02-10 16:54:00,
2013-02-10 10:59:00,43.6,42.0,29.72,NW,308,4.0,5.0,94,0.01,,,0.40,VWS V14.01,2013-02-10 16:59:00,
2013-02-10 11:04:00,43.8,42.2,29.71,SSW,212,4.0,5.0,94,0.01,,,0.40,VWS V14.01,2013-02-10 17:04:00,
2013-02-10 11:09:00,43.9,42.3,29.71,SW,223,2.0,2.0,94,0.01,,,0.40,VWS V14.01,2013-02-10 17:09:00,
2013-02-10 11:14:00,44.0,42.4,29.70,SSW,209,0.0,1.0,94,0.01,,,0.40,VWS V14.01,2013-02-10 17:14:00,
2013-02-10 11:19:00,44.1,42.5,29.70,WSW,238,1.0,5.0,94,0.00,,,0.40,VWS V14.01,2013-02-10 17:19:00,
2013-02-10 11:24:00,44.1,42.5,29.69,SW,229,3.0,4.0,94,0.00,,,0.40,VWS V14.01,2013-02-10 17:24:00,
2013-02-10 11:29:00,44.2,42.9,29.69,WNW,292,0.0,3.0,95,0.00,,,0.40,VWS V14.01,2013-02-10 17:29:00,
2013-02-10 11:34:00,44.3,43.0,29.69,SSW,200,4.0,8.0,95,0.01,,,0.41,VWS V14.01,2013-02-10 17:34:00,
2013-02-10 11:39:00,44.3,43.0,29.68,SW,226,2.0,3.0,95,0.01,,,0.41,VWS V14.01,2013-02-10 17:39:00,
2013-02-10 11:44:00,44.4,43.1,29.68,SW,216,2.0,4.0,95,0.01,,,0.41,VWS V14.01,2013-02-10 17:44:00,
2013-02-10 11:49:00,44.6,43.3,29.67,SW,220,2.0,2.0,95,0.01,,,0.41,VWS V14.01,2013-02-10 17:49:00,
2013-02-10 11:54:00,44.7,43.4,29.66,SW,224,4.0,4.0,95,0.01,,,0.41,VWS V14.01,2013-02-10 17:54:00,
2013-02-10 11:59:00,44.8,43.2,29.66,South,186,2.0,4.0,94,0.01,,,0.41,VWS V14.01,2013-02-10 17:59:00,
2013-02-10 12:04:00,44.9,43.3,29.64,SSW,204,2.0,7.0,94,0.01,,,0.41,VWS V14.01,2013-02-10 18:04:00,
2013-02-10 12:09:00,45.0,43.4,29.65,SSW,193,2.0,5.0,94,0.01,,,0.41,VWS V14.01,2013-02-10 18:09:00,
2013-02-10 12:14:00,45.2,43.6,29.64,SW,236,3.0,3.0,94,0.01,,,0.41,VWS V14.01,2013-02-10 18:14:00,
2013-02-10 12:19:00,45.2,43.6,29.63,SW,232,2.0,2.0,94,0.01,,,0.41,VWS V14.01,2013-02-10 18:19:00,
2013-02-10 12:24:00,45.4,43.8,29.63,WSW,244,3.0,5.0,94,0.01,,,0.41,VWS V14.01,2013-02-10 18:24:00,
2013-02-10 12:29:00,45.5,43.9,29.62,SW,235,3.0,4.0,94,0.01,,,0.41,VWS V14.01,2013-02-10 18:29:00,
2013-02-10 12:34:00,45.6,44.0,29.62,WSW,240,4.0,4.0,94,0.00,,,0.41,VWS V14.01,2013-02-10 18:34:00,
2013-02-10 12:39:00,45.8,44.2,29.62,SW,219,1.0,5.0,94,0.00,,,0.41,VWS V14.01,2013-02-10 18:39:00,
2013-02-10 12:44:00,45.9,44.3,29.62,South,183,13.0,13.0,94,0.00,,,0.41,VWS V14.01,2013-02-10 18:44:00,
2013-02-10 12:49:00,46.0,44.4,29.62,SW,230,2.0,6.0,94,0.00,,,0.41,VWS V14.01,2013-02-10 18:49:00,
2013-02-10 12:54:00,46.2,44.6,29.62,SW,221,3.0,7.0,94,0.00,,,0.41,VWS V14.01,2013-02-10 18:54:00,
2013-02-10 12:59:00,46.4,44.8,29.61,SW,223,2.0,3.0,94,0.00,,,0.41,VWS V14.01,2013-02-10 18:59:00,
2013-02-10 13:04:00,46.5,44.9,29.61,SW,218,2.0,4.0,94,0.00,,,0.41,VWS V14.01,2013-02-10 19:04:00,
2013-02-10 13:09:00,46.7,45.1,29.61,SSW,205,2.0,5.0,94,0.00,,,0.41,VWS V14.01,2013-02-10 19:09:00,
2013-02-10 13:14:00,46.8,45.2,29.60,SW,220,7.0,7.0,94,0.00,,,0.41,VWS V14.01,2013-02-10 19:14:00,
2013-02-10 13:19:00,46.9,45.0,29.60,WSW,238,5.0,7.0,93,0.00,,,0.41,VWS V14.01,2013-02-10 19:19:00,
2013-02-10 13:24:00,47.1,45.5,29.60,WSW,256,7.0,8.0,94,0.00,,,0.41,VWS V14.01,2013-02-10 19:24:00,
2013-02-10 13:29:00,47.2,45.3,29.59,WSW,238,4.0,6.0,93,0.00,,,0.41,VWS V14.01,2013-02-10 19:29:00,
2013-02-10 13:34:00,47.2,45.3,29.59,South,172,7.0,7.0,93,0.00,,,0.41,VWS V14.01,2013-02-10 19:34:00,
2013-02-10 13:39:00,47.2,45.3,29.59,West,279,4.0,5.0,93,0.00,,,0.41,VWS V14.01,2013-02-10 19:39:00,
2013-02-10 13:44:00,47.3,45.4,29.59,SSW,209,4.0,6.0,93,0.00,,,0.41,VWS V14.01,2013-02-10 19:44:00,
2013-02-10 13:49:00,47.3,45.4,29.59,SSW,204,3.0,8.0,93,0.00,,,0.41,VWS V14.01,2013-02-10 19:49:00,
2013-02-10 13:54:00,47.3,45.4,29.58,SW,234,2.0,6.0,93,0.00,,,0.41,VWS V14.01,2013-02-10 19:54:00,
2013-02-10 13:59:00,47.3,45.4,29.58,SW,221,5.0,8.0,93,0.00,,,0.41,VWS V14.01,2013-02-10 19:59:00,
2013-02-10 14:04:00,47.4,45.5,29.58,SW,224,5.0,7.0,93,0.00,,,0.41,VWS V14.01,2013-02-10 20:04:00,
2013-02-10 14:09:00,47.5,45.6,29.58,SW,236,2.0,3.0,93,0.00,,,0.41,VWS V14.01,2013-02-10 20:09:00,
2013-02-10 14:14:00,47.7,45.8,29.58,WSW,239,1.0,3.0,93,0.00,,,0.41,VWS V14.01,2013-02-10 20:14:00,
2013-02-10 14:19:00,47.8,45.9,29.57,SSW,193,3.0,6.0,93,0.00,,,0.41,VWS V14.01,2013-02-10 20:19:00,
2013-02-10 14:24:00,48.0,46.1,29.57,SW,214,3.0,4.0,93,0.00,,,0.41,VWS V14.01,2013-02-10 20:24:00,
2013-02-10 14:29:00,48.1,46.2,29.57,SSW,201,6.0,10.0,93,0.00,,,0.41,VWS V14.01,2013-02-10 20:29:00,
2013-02-10 14:34:00,48.1,46.2,29.57,SE,136,7.0,7.0,93,0.00,,,0.41,VWS V14.01,2013-02-10 20:34:00,
2013-02-10 14:39:00,48.0,46.4,29.57,SW,230,2.0,3.0,94,0.00,,,0.41,VWS V14.01,2013-02-10 20:39:00,
2013-02-10 14:44:00,47.8,46.2,29.57,SSW,193,6.0,7.0,94,0.00,,,0.41,VWS V14.01,2013-02-10 20:44:00,
2013-02-10 14:49:00,47.7,46.1,29.57,SW,231,6.0,7.0,94,0.00,,,0.41,VWS V14.01,2013-02-10 20:49:00,
2013-02-10 14:54:00,47.6,46.0,29.57,SW,229,3.0,4.0,94,0.00,,,0.41,VWS V14.01,2013-02-10 20:54:00,
2013-02-10 14:59:00,47.5,45.9,29.57,SSW,200,2.0,5.0,94,0.00,,,0.41,VWS V14.01,2013-02-10 20:59:00,
2013-02-10 15:04:00,47.5,46.1,29.57,SSW,202,4.0,4.0,95,0.00,,,0.41,VWS V14.01,2013-02-10 21:04:00,
2013-02-10 15:09:00,47.5,46.1,29.57,WSW,237,4.0,4.0,95,0.00,,,0.41,VWS V14.01,2013-02-10 21:09:00,
2013-02-10 15:14:00,47.6,46.2,29.56,SSW,213,3.0,4.0,95,0.00,,,0.41,VWS V14.01,2013-02-10 21:14:00,
2013-02-10 15:19:00,47.6,46.2,29.55,South,176,4.0,6.0,95,0.00,,,0.41,VWS V14.01,2013-02-10 21:19:00,
2013-02-10 15:24:00,47.7,46.3,29.55,SW,217,3.0,4.0,95,0.00,,,0.41,VWS V14.01,2013-02-10 21:24:00,
2013-02-10 15:29:00,47.8,46.4,29.55,WSW,251,4.0,6.0,95,0.00,,,0.41,VWS V14.01,2013-02-10 21:29:00,
2013-02-10 15:34:00,47.8,46.4,29.55,SSW,195,7.0,7.0,95,0.00,,,0.41,VWS V14.01,2013-02-10 21:34:00,
2013-02-10 15:39:00,47.9,46.5,29.55,SW,229,1.0,3.0,95,0.00,,,0.41,VWS V14.01,2013-02-10 21:39:00,
2013-02-10 15:44:00,48.0,46.6,29.55,WSW,239,2.0,3.0,95,0.00,,,0.41,VWS V14.01,2013-02-10 21:44:00,
2013-02-10 15:49:00,48.1,46.7,29.55,SW,220,2.0,4.0,95,0.00,,,0.41,VWS V14.01,2013-02-10 21:49:00,
2013-02-10 15:54:00,48.2,46.8,29.55,WSW,239,6.0,12.0,95,0.00,,,0.41,VWS V14.01,2013-02-10 21:54:00,
2013-02-10 15:59:00,48.2,46.8,29.55,South,184,3.0,3.0,95,0.00,,,0.41,VWS V14.01,2013-02-10 21:59:00,
2013-02-10 16:04:00,48.3,46.9,29.55,SW,236,4.0,7.0,95,0.00,,,0.41,VWS V14.01,2013-02-10 22:04:00,
2013-02-10 16:09:00,48.5,47.1,29.54,SW,215,1.0,3.0,95,0.00,,,0.41,VWS V14.01,2013-02-10 22:09:00,
2013-02-10 16:14:00,48.5,47.1,29.54,SW,226,2.0,4.0,95,0.00,,,0.41,VWS V14.01,2013-02-10 22:14:00,
2013-02-10 16:19:00,48.5,46.9,29.54,SSW,213,2.0,6.0,94,0.00,,,0.41,VWS V14.01,2013-02-10 22:19:00,
2013-02-10 16:24:00,48.6,47.2,29.54,SW,219,2.0,6.0,95,0.00,,,0.41,VWS V14.01,2013-02-10 22:24:00,
2013-02-10 16:29:00,48.6,47.2,29.54,SW,216,5.0,6.0,95,0.00,,,0.41,VWS V14.01,2013-02-10 22:29:00,
2013-02-10 16:34:00,48.7,47.3,29.54,SSW,207,5.0,5.0,95,0.00,,,0.41,VWS V14.01,2013-02-10 22:34:00,
2013-02-10 16:39:00,48.7,47.3,29.54,SW,214,5.0,6.0,95,0.00,,,0.41,VWS V14.01,2013-02-10 22:39:00,
2013-02-10 16:44:00,48.8,47.4,29.54,WSW,240,5.0,5.0,95,0.00,,,0.41,VWS V14.01,2013-02-10 22:44:00,
2013-02-10 16:49:00,49.0,47.6,29.54,SSW,212,1.0,6.0,95,0.00,,,0.41,VWS V14.01,2013-02-10 22:49:00,
2013-02-10 16:54:00,49.0,47.3,29.54,SSE,167,4.0,5.0,94,0.00,,,0.41,VWS V14.01,2013-02-10 22:54:00,
2013-02-10 16:59:00,49.1,47.5,29.54,SW,221,2.0,10.0,94,0.00,,,0.41,VWS V14.01,2013-02-10 22:59:00,
2013-02-10 17:04:00,49.2,47.5,29.54,SW,223,3.0,6.0,94,0.00,,,0.41,VWS V14.01,2013-02-10 23:04:00,
2013-02-10 17:09:00,49.3,47.7,29.54,SW,222,3.0,5.0,94,0.00,,,0.41,VWS V14.01,2013-02-10 23:09:00,
2013-02-10 17:14:00,49.3,47.7,29.54,SW,229,2.0,4.0,94,0.00,,,0.41,VWS V14.01,2013-02-10 23:14:00,
2013-02-10 17:19:00,49.4,47.8,29.54,WSW,238,3.0,3.0,94,0.00,,,0.41,VWS V14.01,2013-02-10 23:19:00,
2013-02-10 17:24:00,49.4,47.8,29.54,WSW,242,2.0,3.0,94,0.00,,,0.41,VWS V14.01,2013-02-10 23:24:00,
2013-02-10 17:29:00,49.4,47.8,29.54,SW,234,4.0,7.0,94,0.00,,,0.41,VWS V14.01,2013-02-10 23:29:00,
2013-02-10 17:34:00,49.5,47.8,29.54,WSW,241,4.0,4.0,94,0.00,,,0.41,VWS V14.01,2013-02-10 23:34:00,
2013-02-10 17:39:00,49.4,47.8,29.54,SW,227,3.0,4.0,94,0.00,,,0.41,VWS V14.01,2013-02-10 23:39:00,
2013-02-10 17:44:00,49.4,47.8,29.54,SW,214,3.0,3.0,94,0.00,,,0.41,VWS V14.01,2013-02-10 23:44:00,
2013-02-10 17:49:00,49.4,47.8,29.54,SSW,196,4.0,4.0,94,0.00,,,0.41,VWS V14.01,2013-02-10 23:49:00,
2013-02-10 17:54:00,49.3,47.7,29.55,SSW,213,4.0,5.0,94,0.00,,,0.41,VWS V14.01,2013-02-10 23:54:00,
2013-02-10 17:59:00,49.3,47.7,29.55,SW,223,3.0,3.0,94,0.00,,,0.41,VWS V14.01,2013-02-10 23:59:00,
2013-02-10 18:04:00,49.3,47.7,29.54,SW,220,2.0,4.0,94,0.00,,,0.41,VWS V14.01,2013-02-11 00:04:00,
2013-02-10 18:09:00,49.3,47.7,29.55,SW,233,3.0,4.0,94,0.00,,,0.41,VWS V14.01,2013-02-11 00:09:00,
2013-02-10 18:14:00,49.2,47.5,29.55,SSE,153,2.0,3.0,94,0.00,,,0.41,VWS V14.01,2013-02-11 00:14:00,
2013-02-10 18:19:00,49.2,47.5,29.55,SSW,213,3.0,3.0,94,0.00,,,0.41,VWS V14.01,2013-02-11 00:19:00,
2013-02-10 18:24:00,49.1,47.5,29.55,SW,219,3.0,7.0,94,0.00,,,0.41,VWS V14.01,2013-02-11 00:24:00,
2013-02-10 18:29:00,49.1,47.5,29.55,SSW,201,1.0,4.0,94,0.00,,,0.41,VWS V14.01,2013-02-11 00:29:00,
2013-02-10 18:34:00,49.1,47.5,29.55,WSW,250,3.0,4.0,94,0.00,,,0.41,VWS V14.01,2013-02-11 00:34:00,
2013-02-10 18:39:00,49.1,47.5,29.55,SW,234,5.0,5.0,94,0.00,,,0.41,VWS V14.01,2013-02-11 00:39:00,
2013-02-10 18:44:00,49.2,47.5,29.55,SSW,205,2.0,3.0,94,0.00,,,0.41,VWS V14.01,2013-02-11 00:44:00,
2013-02-10 18:49:00,49.3,47.9,29.55,SW,229,3.0,4.0,95,0.00,,,0.41,VWS V14.01,2013-02-11 00:49:00,
2013-02-10 18:54:00,49.3,47.7,29.55,SW,233,2.0,2.0,94,0.00,,,0.41,VWS V14.01,2013-02-11 00:54:00,
2013-02-10 19:00:00,49.4,47.8,29.55,SSW,198,3.0,3.0,94,0.00,,,0.41,VWS V14.01,2013-02-11 01:00:00,
2013-02-10 19:02:00,49.3,47.7,29.55,WSW,238,2.0,5.0,94,0.00,,,0.41,VWS V14.01,2013-02-11 01:02:00,
2013-02-10 19:06:00,49.4,47.8,29.55,SW,221,2.0,2.0,94,0.00,,,0.41,VWS V14.01,2013-02-11 01:06:00,
2013-02-10 19:23:00,49.7,47.8,29.55,SW,232,3.0,3.0,93,0.00,,,0.41,VWS V14.01,2013-02-11 01:23:00,
2013-02-10 19:28:00,49.8,47.9,29.55,SW,223,1.0,3.0,93,0.00,,,0.41,VWS V14.01,2013-02-11 01:28:00,
2013-02-10 19:33:00,50.1,47.9,29.55,SSW,198,3.0,3.0,92,0.00,,,0.41,VWS V14.01,2013-02-11 01:33:00,
2013-02-10 19:38:00,50.4,48.2,29.56,SW,221,2.0,3.0,92,0.00,,,0.41,VWS V14.01,2013-02-11 01:38:00,
2013-02-10 19:43:00,50.5,48.0,29.56,SW,217,7.0,7.0,91,0.00,,,0.41,VWS V14.01,2013-02-11 01:43:00,
2013-02-10 19:48:00,50.8,48.3,29.57,SW,217,2.0,3.0,91,0.00,,,0.41,VWS V14.01,2013-02-11 01:48:00,
2013-02-10 19:53:00,51.1,48.6,29.57,SW,221,5.0,5.0,91,0.00,,,0.41,VWS V14.01,2013-02-11 01:53:00,
2013-02-10 19:58:00,51.2,48.4,29.57,SSW,211,3.0,4.0,90,0.00,,,0.41,VWS V14.01,2013-02-11 01:58:00,
2013-02-10 20:03:00,51.0,48.2,29.57,SW,231,3.0,5.0,90,0.00,,,0.41,VWS V14.01,2013-02-11 02:03:00,
2013-02-10 20:08:00,50.8,47.7,29.58,WSW,246,2.0,2.0,89,0.00,,,0.41,VWS V14.01,2013-02-11 02:08:00,
2013-02-10 20:13:00,50.6,47.5,29.58,WSW,248,2.0,4.0,89,0.00,,,0.41,VWS V14.01,2013-02-11 02:13:00,
2013-02-10 20:18:00,50.4,47.3,29.58,West,269,5.0,5.0,89,0.00,,,0.41,VWS V14.01,2013-02-11 02:18:00,
2013-02-10 20:23:00,50.2,46.8,29.58,SW,215,2.0,2.0,88,0.00,,,0.41,VWS V14.01,2013-02-11 02:23:00,
2013-02-10 20:28:00,50.1,46.7,29.58,SSW,206,2.0,2.0,88,0.00,,,0.41,VWS V14.01,2013-02-11 02:28:00,
2013-02-10 20:33:00,49.9,46.2,29.58,West,270,2.0,4.0,87,0.00,,,0.41,VWS V14.01,2013-02-11 02:33:00,
2013-02-10 20:38:00,49.7,46.0,29.58,SW,216,1.0,3.0,87,0.00,,,0.41,VWS V14.01,2013-02-11 02:38:00,
2013-02-10 20:43:00,49.3,45.3,29.59,SW,224,1.0,2.0,86,0.00,,,0.41,VWS V14.01,2013-02-11 02:43:00,
2013-02-10 20:48:00,49.2,44.6,29.59,SSW,198,1.0,4.0,84,0.00,,,0.41,VWS V14.01,2013-02-11 02:48:00,
2013-02-10 20:53:00,49.2,44.0,29.59,SW,215,2.0,2.0,82,0.00,,,0.41,VWS V14.01,2013-02-11 02:53:00,
2013-02-10 20:58:00,49.0,43.1,29.59,SW,219,3.0,4.0,80,0.00,,,0.41,VWS V14.01,2013-02-11 02:58:00,
2013-02-10 21:03:00,48.9,42.0,29.59,SW,218,3.0,3.0,77,0.00,,,0.41,VWS V14.01,2013-02-11 03:03:00,
2013-02-10 21:08:00,48.7,41.5,29.59,SW,234,4.0,4.0,76,0.00,,,0.41,VWS V14.01,2013-02-11 03:08:00,
2013-02-10 21:13:00,48.5,40.6,29.59,SW,226,3.0,3.0,74,0.00,,,0.41,VWS V14.01,2013-02-11 03:13:00,
2013-02-10 21:18:00,48.3,40.4,29.59,SSW,207,3.0,4.0,74,0.00,,,0.41,VWS V14.01,2013-02-11 03:18:00,
2013-02-10 21:23:00,48.1,40.6,29.60,SW,214,1.0,3.0,75,0.00,,,0.41,VWS V14.01,2013-02-11 03:23:00,
2013-02-10 21:28:00,47.8,39.9,29.60,SW,214,3.0,3.0,74,0.00,,,0.41,VWS V14.01,2013-02-11 03:28:00,
2013-02-10 21:33:00,47.6,39.7,29.60,SW,222,2.0,6.0,74,0.00,,,0.41,VWS V14.01,2013-02-11 03:33:00,
2013-02-10 21:38:00,47.7,39.1,29.60,SW,230,2.0,4.0,72,0.00,,,0.41,VWS V14.01,2013-02-11 03:38:00,
2013-02-10 21:43:00,47.9,39.0,29.60,SW,216,3.0,4.0,71,0.00,,,0.41,VWS V14.01,2013-02-11 03:43:00,
2013-02-10 21:48:00,48.3,38.6,29.60,SW,222,5.0,5.0,69,0.00,,,0.41,VWS V14.01,2013-02-11 03:48:00,
2013-02-10 21:53:00,48.5,38.8,29.61,WSW,257,3.0,6.0,69,0.00,,,0.41,VWS V14.01,2013-02-11 03:53:00,
2013-02-10 21:58:00,48.5,38.4,29.60,SW,227,3.0,3.0,68,0.00,,,0.41,VWS V14.01,2013-02-11 03:58:00,
2013-02-10 22:03:00,48.4,38.3,29.61,WSW,250,3.0,5.0,68,0.00,,,0.41,VWS V14.01,2013-02-11 04:03:00,
2013-02-10 22:08:00,48.1,38.8,29.61,SW,223,2.0,3.0,70,0.00,,,0.41,VWS V14.01,2013-02-11 04:08:00,
2013-02-10 22:13:00,47.9,38.2,29.61,SW,219,2.0,4.0,69,0.00,,,0.41,VWS V14.01,2013-02-11 04:13:00,
2013-02-10 22:18:00,47.9,38.6,29.61,SW,223,2.0,3.0,70,0.00,,,0.41,VWS V14.01,2013-02-11 04:18:00,
2013-02-10 22:23:00,47.8,38.5,29.61,SW,222,1.0,2.0,70,0.00,,,0.41,VWS V14.01,2013-02-11 04:23:00,
2013-02-10 22:28:00,47.6,38.3,29.61,SW,234,0.0,3.0,70,0.00,,,0.41,VWS V14.01,2013-02-11 04:28:00,
2013-02-10 22:33:00,47.4,38.1,29.61,SW,216,2.0,2.0,70,0.00,,,0.41,VWS V14.01,2013-02-11 04:33:00,
2013-02-10 22:38:00,47.2,37.9,29.61,SW,217,3.0,4.0,70,0.00,,,0.41,VWS V14.01,2013-02-11 04:38:00,
2013-02-10 22:43:00,47.2,38.3,29.62,SW,232,2.0,4.0,71,0.00,,,0.41,VWS V14.01,2013-02-11 04:43:00,
2013-02-10 22:48:00,47.1,38.2,29.62,WSW,248,4.0,4.0,71,0.00,,,0.41,VWS V14.01,2013-02-11 04:48:00,
2013-02-10 22:53:00,47.0,37.7,29.62,SW,229,4.0,6.0,70,0.00,,,0.41,VWS V14.01,2013-02-11 04:53:00,
2013-02-10 22:58:00,46.7,38.2,29.62,SW,220,3.0,3.0,72,0.00,,,0.41,VWS V14.01,2013-02-11 04:58:00,
2013-02-10 23:00:00,46.5,37.6,29.62,WSW,246,2.0,3.0,71,0.00,,,0.41,VWS V14.01,2013-02-11 05:00:00,
2013-02-10 23:05:00,46.3,37.4,29.63,SSW,205,1.0,4.0,71,0.00,,,0.41,VWS V14.01,2013-02-11 05:05:00,
2013-02-10 23:10:00,46.0,36.8,29.63,SW,227,3.0,4.0,70,0.00,,,0.41,VWS V14.01,2013-02-11 05:10:00,
2013-02-10 23:15:00,45.9,36.3,29.63,SW,225,2.0,6.0,69,0.00,,,0.41,VWS V14.01,2013-02-11 05:15:00,
2013-02-10 23:20:00,45.6,35.7,29.63,SW,234,6.0,11.0,68,0.00,,,0.41,VWS V14.01,2013-02-11 05:20:00,
2013-02-10 23:25:00,45.4,34.7,29.63,WSW,252,3.0,5.0,66,0.01,,,0.42,VWS V14.01,2013-02-11 05:25:00,
2013-02-10 23:30:00,45.1,34.8,29.64,WSW,244,5.0,6.0,67,0.01,,,0.42,VWS V14.01,2013-02-11 05:30:00,
2013-02-10 23:35:00,44.7,34.8,29.64,SW,231,4.0,5.0,68,0.01,,,0.42,VWS V14.01,2013-02-11 05:35:00,
2013-02-10 23:40:00,44.2,34.7,29.64,WSW,254,4.0,5.0,69,0.01,,,0.42,VWS V14.01,2013-02-11 05:40:00,
2013-02-10 23:45:00,43.9,34.4,29.64,West,263,4.0,5.0,69,0.01,,,0.42,VWS V14.01,2013-02-11 05:45:00,
2013-02-10 23:50:00,43.7,34.2,29.64,WSW,237,4.0,4.0,69,0.01,,,0.42,VWS V14.01,2013-02-11 05:50:00,
2013-02-10 23:55:00,43.5,34.4,29.65,SW,228,3.0,5.0,70,0.01,,,0.42,VWS V14.01,2013-02-11 05:55:00,